Terminal Aerodrome Forecast
Issued by NWS

Home | Current Version | Previous Version | Text Only | Print | Product List | Glossary On
Versions: 1 2 3 4 5 6 7 8 9 10 11 12 13 14 15 16 17 18 19 20 21 22 23 24 25 26 27 28 29 30 31 32 33
000
FTUS41 KBUF 292338
TAFIAG
TAF
KIAG 292338Z 3000/3024 17006KT P6SM BKN200
     FM300600 12005KT 6SM -SHRA VCTS OVC060CB
     FM301200 11010KT P6SM VCSH OVC025
     FM301700 19009KT P6SM VCSH OVC020
     FM301900 21010G16KT 6SM -SHRA VCTS OVC025CB
     FM302300 20009KT P6SM VCSH BKN090=

USA.gov is the U.S. government's official web portal to all federal, state and local government web resources and services.